Time;durP1;ratioP1;P1;durP2;ratioP2;P2;SDS_P1;SDS_P2;PMS_P1;PMS_P2;Temp;Humidity;BMP_temperature;BMP_pressure;BME280_temperature;BME280_humidity;BME280_pressure;Samples;Min_cycle;Max_cycle;Signal;HPM_P1;HPM_P2
2023/04/06 00:04:51;;;;;;;57.60;26.50;;;;;;;-2.89;71.01;100449.88;219302;1256;140059;-65
2023/04/06 00:09:55;;;;;;;42.20;21.80;;;;;;;-2.90;70.85;100445.34;218681;1257;140764;-65
2023/04/06 00:15:01;;;;;;;43.60;23.10;;;;;;;-2.91;71.10;100441.77;218568;1256;140153;-65
2023/04/06 00:20:06;;;;;;;47.70;23.70;;;;;;;-2.97;71.09;100434.95;217856;1257;140179;-66
2023/04/06 00:25:11;;;;;;;59.50;27.40;;;;;;;-2.99;71.26;100432.70;218533;1257;140323;-63
2023/04/06 00:30:15;;;;;;;69.80;33.60;;;;;;;-3.02;71.38;100431.38;218582;1256;140343;-65
2023/04/06 00:35:20;;;;;;;54.20;27.60;;;;;;;-3.04;71.53;100430.98;218301;1257;141178;-65
2023/04/06 00:40:24;;;;;;;51.10;27.40;;;;;;;-3.08;71.75;100425.80;218220;1256;140555;-64
2023/04/06 00:45:29;;;;;;;58.60;30.80;;;;;;;-3.12;71.89;100422.98;218149;1257;140423;-64
2023/04/06 00:50:33;;;;;;;43.50;25.90;;;;;;;-3.17;72.01;100421.89;218527;1256;140327;-64
2023/04/06 00:55:39;;;;;;;41.00;24.20;;;;;;;-3.21;72.01;100425.37;218222;1259;140169;-66
2023/04/06 01:00:43;;;;;;;36.60;21.60;;;;;;;-3.31;71.92;100426.52;219371;1254;140193;-65
2023/04/06 01:05:47;;;;;;;55.10;24.00;;;;;;;-3.36;72.00;100428.71;219503;1256;141471;-65
2023/04/06 01:10:52;;;;;;;38.00;22.70;;;;;;;-3.42;72.11;100429.69;217838;1259;140208;-65
2023/04/06 01:15:57;;;;;;;41.20;21.50;;;;;;;-3.48;72.08;100430.19;218895;1254;140359;-64
2023/04/06 01:21:02;;;;;;;36.80;20.50;;;;;;;-3.51;72.32;100427.54;219151;1254;140315;-63
2023/04/06 01:26:06;;;;;;;36.90;20.60;;;;;;;-3.57;72.43;100426.66;219710;1255;140876;-63
2023/04/06 01:31:11;;;;;;;32.10;18.70;;;;;;;-3.62;72.57;100420.79;220798;1254;141584;-65
2023/04/06 01:36:15;;;;;;;37.70;23.20;;;;;;;-3.59;72.74;100419.88;220649;1255;141259;-64
2023/04/06 01:41:20;;;;;;;35.70;20.30;;;;;;;-3.55;73.03;100417.82;220201;1254;140924;-64
2023/04/06 01:46:24;;;;;;;35.20;19.60;;;;;;;-3.57;72.99;100414.32;220541;1254;140190;-65
2023/04/06 01:51:29;;;;;;;39.30;21.20;;;;;;;-3.62;72.84;100409.70;219878;1256;140980;-69
2023/04/06 01:56:35;;;;;;;40.00;22.30;;;;;;;-3.63;72.91;100406.82;220574;1256;140599;-65
2023/04/06 02:01:40;;;;;;;32.90;20.40;;;;;;;-3.61;73.19;100404.58;219122;1254;141515;-63
2023/04/06 02:06:45;;;;;;;36.50;20.10;;;;;;;-3.62;73.22;100399.58;218533;1254;142588;-65
2023/04/06 02:11:49;;;;;;;38.90;23.70;;;;;;;-3.65;73.03;100397.12;218159;1259;140186;-67
2023/04/06 02:16:53;;;;;;;38.90;21.50;;;;;;;-3.72;73.00;100397.81;218200;1254;140548;-64
2023/04/06 02:21:58;;;;;;;35.90;20.20;;;;;;;-3.78;73.31;100399.55;218631;1254;153386;-64
2023/04/06 02:27:03;;;;;;;29.90;20.10;;;;;;;-3.85;73.38;100395.98;218301;1254;140092;-64
2023/04/06 02:32:07;;;;;;;37.60;22.20;;;;;;;-3.93;73.60;100398.68;217821;1256;140295;-63
2023/04/06 02:37:14;;;;;;;38.60;21.80;;;;;;;-3.97;73.79;100396.30;218529;1255;140911;-63
2023/04/06 02:42:19;;;;;;;41.60;25.30;;;;;;;-4.05;73.75;100393.60;218241;1257;238433;-64
2023/04/06 02:47:24;;;;;;;34.40;21.80;;;;;;;-4.09;73.84;100393.59;218258;1256;140584;-64
2023/04/06 02:52:28;;;;;;;41.80;21.30;;;;;;;-4.12;74.00;100394.69;218721;1258;139898;-64
2023/04/06 02:57:33;;;;;;;35.30;20.50;;;;;;;-4.14;73.89;100405.27;218623;1256;140245;-64
2023/04/06 03:02:37;;;;;;;40.50;21.80;;;;;;;-4.16;74.21;100404.02;219200;1254;141408;-64
2023/04/06 03:07:42;;;;;;;37.60;21.40;;;;;;;-4.17;74.30;100404.85;218478;1255;142876;-64
2023/04/06 03:12:47;;;;;;;42.80;22.10;;;;;;;-4.20;74.19;100409.73;219051;1256;140613;-64
2023/04/06 03:17:52;;;;;;;40.90;21.70;;;;;;;-4.21;74.28;100406.73;219425;1255;142085;-64
2023/04/06 03:22:56;;;;;;;37.90;20.40;;;;;;;-4.23;74.36;100410.03;220481;1257;140355;-65
2023/04/06 03:28:01;;;;;;;50.30;25.80;;;;;;;-4.24;74.62;100411.34;219464;1257;140978;-64
2023/04/06 03:33:05;;;;;;;40.90;23.70;;;;;;;-4.24;74.46;100413.06;219055;1257;140531;-65
2023/04/06 03:38:10;;;;;;;47.50;21.60;;;;;;;-4.27;74.62;100414.45;219609;1259;141718;-64
2023/04/06 03:43:15;;;;;;;31.10;20.20;;;;;;;-4.27;74.41;100415.39;219419;1255;140497;-65
2023/04/06 03:48:20;;;;;;;39.00;21.50;;;;;;;-4.28;74.49;100414.94;219804;1257;142323;-64
2023/04/06 03:53:24;;;;;;;42.40;21.50;;;;;;;-4.27;74.62;100419.85;218071;1259;140388;-64
2023/04/06 03:58:27;;;;;;;32.80;19.70;;;;;;;-4.20;75.21;100421.95;218755;1257;140531;-63
2023/04/06 04:03:31;;;;;;;35.50;19.30;;;;;;;-4.16;75.18;100418.63;219079;1256;141410;-63
2023/04/06 04:08:36;;;;;;;33.00;20.20;;;;;;;-4.13;75.06;100416.15;218019;1259;140898;-64
2023/04/06 04:13:40;;;;;;;32.00;19.70;;;;;;;-4.11;75.28;100424.32;218503;1257;140574;-64
2023/04/06 04:18:45;;;;;;;39.90;23.60;;;;;;;-4.06;75.71;100425.98;218194;1257;140481;-64
2023/04/06 04:23:50;;;;;;;39.10;22.00;;;;;;;-3.98;75.83;100424.97;218766;1257;141695;-64
2023/04/06 04:28:53;;;;;;;38.40;23.70;;;;;;;-3.87;76.09;100422.31;218458;1259;140175;-64
2023/04/06 04:33:58;;;;;;;42.90;26.50;;;;;;;-3.75;76.16;100419.13;218831;1256;141294;-64
2023/04/06 04:39:02;;;;;;;36.20;22.50;;;;;;;-3.66;76.27;100417.12;218198;1254;140595;-64
2023/04/06 04:44:06;;;;;;;43.00;24.10;;;;;;;-3.56;76.67;100420.31;219103;1256;142249;-65
2023/04/06 04:49:13;;;;;;;44.00;25.00;;;;;;;-3.45;76.63;100420.80;218056;1257;142259;-64
2023/04/06 04:54:19;;;;;;;45.20;22.80;;;;;;;-3.33;76.65;100419.23;218739;1256;140153;-64
2023/04/06 04:59:24;;;;;;;35.20;19.40;;;;;;;-3.22;76.69;100419.83;218947;1254;140059;-63
2023/04/06 05:04:29;;;;;;;36.80;19.30;;;;;;;-3.13;76.46;100423.64;218874;1257;140221;-65
2023/04/06 05:09:34;;;;;;;41.40;25.30;;;;;;;-3.01;76.72;100423.84;219841;1256;140727;-64
2023/04/06 05:14:40;;;;;;;51.10;25.30;;;;;;;-2.86;76.81;100424.77;218951;1257;140451;-63
2023/04/06 05:19:44;;;;;;;43.60;21.60;;;;;;;-2.72;76.56;100428.06;219406;1257;141112;-65
2023/04/06 05:24:49;;;;;;;64.20;33.00;;;;;;;-2.59;76.66;100426.38;219677;1256;142890;-65
2023/04/06 05:29:54;;;;;;;121.20;51.80;;;;;;;-2.41;76.74;100417.84;220401;1256;140373;-65
2023/04/06 05:35:01;;;;;;;48.10;27.70;;;;;;;-2.24;76.61;100415.31;220022;1254;141311;-65
2023/04/06 05:40:06;;;;;;;49.60;26.70;;;;;;;-2.13;76.15;100417.96;219863;1254;140006;-65
2023/04/06 05:45:16;;;;;;;37.40;24.30;;;;;;;-1.99;76.49;100410.29;219807;1255;140016;-65
2023/04/06 05:50:22;;;;;;;43.40;23.10;;;;;;;-1.83;76.26;100408.14;219976;1254;141124;-64
2023/04/06 05:55:27;;;;;;;36.30;20.80;;;;;;;-1.71;76.24;100407.01;219546;1257;140017;-64
2023/04/06 06:00:32;;;;;;;37.60;23.50;;;;;;;-1.57;76.10;100407.55;219315;1256;140298;-64
2023/04/06 06:05:39;;;;;;;40.30;22.00;;;;;;;-1.42;76.34;100401.59;218734;1258;140670;-63
2023/04/06 06:10:44;;;;;;;46.70;26.80;;;;;;;-1.29;76.19;100398.34;218141;1257;140352;-64
2023/04/06 06:15:50;;;;;;;48.70;27.10;;;;;;;-1.19;76.30;100395.59;218339;1257;140237;-64
2023/04/06 06:20:56;;;;;;;41.30;23.70;;;;;;;-1.08;76.19;100401.99;218588;1255;142329;-65
2023/04/06 06:26:01;;;;;;;36.00;22.50;;;;;;;-0.95;76.23;100395.65;218601;1257;139900;-64
2023/04/06 06:31:05;;;;;;;25.10;16.40;;;;;;;-0.80;76.04;100399.56;219039;1254;140532;-63
2023/04/06 06:36:10;;;;;;;28.50;19.40;;;;;;;-0.67;75.61;100399.17;219382;1257;140414;-65
2023/04/06 06:41:16;;;;;;;39.70;22.00;;;;;;;-0.50;75.38;100396.50;218001;1254;140812;-65
2023/04/06 06:46:21;;;;;;;36.80;19.60;;;;;;;-0.34;75.03;100398.32;220052;1254;141135;-65
2023/04/06 06:51:26;;;;;;;35.70;21.00;;;;;;;-0.15;75.00;100394.37;219590;1258;141157;-63
2023/04/06 06:56:30;;;;;;;28.30;17.80;;;;;;;0.03;74.56;100399.05;219409;1258;140891;-64
2023/04/06 07:01:36;;;;;;;24.40;14.60;;;;;;;0.20;74.14;100396.64;218818;1257;139869;-65
2023/04/06 07:06:41;;;;;;;29.40;16.70;;;;;;;0.33;73.71;100393.04;219150;1256;141199;-64
2023/04/06 07:11:46;;;;;;;24.30;16.60;;;;;;;0.53;73.63;100393.73;220372;1254;140574;-64
2023/04/06 07:16:51;;;;;;;29.10;16.70;;;;;;;0.69;73.34;100392.02;220927;1256;140231;-65
2023/04/06 07:21:56;;;;;;;25.40;14.80;;;;;;;0.85;73.00;100386.42;220720;1254;140867;-65
2023/04/06 07:27:01;;;;;;;26.50;14.80;;;;;;;1.02;72.62;100386.59;220856;1254;140736;-65
2023/04/06 07:32:06;;;;;;;23.80;14.90;;;;;;;1.18;72.47;100393.20;220176;1254;140012;-65
2023/04/06 07:37:10;;;;;;;20.20;15.10;;;;;;;1.36;71.93;100386.01;219189;1259;140496;-65
2023/04/06 07:42:15;;;;;;;24.60;14.10;;;;;;;1.55;71.54;100384.84;219649;1259;140973;-65
2023/04/06 07:47:19;;;;;;;16.70;11.70;;;;;;;1.71;71.30;100386.06;219499;1254;140329;-64
2023/04/06 07:52:24;;;;;;;23.40;13.80;;;;;;;1.94;71.06;100381.10;218828;1258;140251;-65
2023/04/06 07:57:28;;;;;;;17.60;12.50;;;;;;;2.20;71.13;100378.17;218062;1258;139820;-65
2023/04/06 08:02:32;;;;;;;25.50;14.70;;;;;;;2.37;70.62;100380.55;219650;1255;139366;-65
2023/04/06 08:07:36;;;;;;;14.70;10.40;;;;;;;2.45;70.25;100380.33;217893;1254;140113;-65
2023/04/06 08:12:40;;;;;;;20.40;13.00;;;;;;;2.58;69.90;100381.20;219128;1257;142377;-65
2023/04/06 08:17:44;;;;;;;21.80;14.00;;;;;;;2.74;69.57;100374.48;218537;1259;139715;-64
2023/04/06 08:22:48;;;;;;;18.20;9.90;;;;;;;3.10;69.17;100373.12;218181;1259;141024;-64
2023/04/06 08:27:55;;;;;;;15.10;8.70;;;;;;;3.56;68.97;100368.27;218278;1256;139259;-65
2023/04/06 08:33:00;;;;;;;16.30;10.00;;;;;;;4.07;68.36;100367.20;218486;1258;140310;-65
2023/04/06 08:38:06;;;;;;;10.50;7.40;;;;;;;4.50;67.61;100361.70;218866;1259;139550;-67
2023/04/06 08:43:15;;;;;;;8.20;5.50;;;;;;;4.90;66.93;100355.40;219380;1259;139187;-68
2023/04/06 08:48:21;;;;;;;14.30;6.80;;;;;;;5.07;65.21;100361.25;219279;1257;138809;-68
2023/04/06 08:53:25;;;;;;;5.30;4.00;;;;;;;5.19;64.69;100348.94;219051;1257;139563;-67
2023/04/06 08:58:34;;;;;;;5.10;4.10;;;;;;;5.25;64.01;100347.80;218482;1257;139077;-66
2023/04/06 09:03:40;;;;;;;3.70;3.30;;;;;;;5.14;62.68;100342.46;220658;1254;139154;-67
2023/04/06 09:08:45;;;;;;;4.80;3.40;;;;;;;5.13;62.77;100338.39;219957;1259;139023;-67
2023/04/06 09:13:50;;;;;;;4.30;3.00;;;;;;;5.16;62.16;100339.41;220811;1256;140016;-66
2023/04/06 09:19:03;;;;;;;11.60;4.70;;;;;;;5.08;61.53;100339.70;220906;1258;140577;-66
2023/04/06 09:24:08;;;;;;;3.30;2.20;;;;;;;5.00;61.55;100335.66;219794;1257;139118;-67
2023/04/06 09:29:24;;;;;;;3.10;2.80;;;;;;;5.00;61.16;100334.08;219823;1254;139371;-67
2023/04/06 09:34:28;;;;;;;7.20;3.00;;;;;;;5.00;60.39;100332.04;219303;1254;139650;-66
2023/04/06 09:39:32;;;;;;;3.50;3.20;;;;;;;5.07;60.69;100328.48;219432;1254;138988;-65
2023/04/06 09:44:37;;;;;;;4.10;2.90;;;;;;;5.12;60.25;100331.51;219778;1255;152924;-66
2023/04/06 09:49:43;;;;;;;3.50;3.20;;;;;;;5.12;59.86;100327.08;220063;1254;138539;-67
2023/04/06 09:54:50;;;;;;;4.60;3.50;;;;;;;5.10;59.08;100321.35;219173;1254;139288;-66
2023/04/06 10:00:14;;;;;;;3.70;3.00;;;;;;;5.26;59.68;100315.15;218514;1254;139141;-66
2023/04/06 10:05:37;;;;;;;6.40;3.80;;;;;;;5.35;59.43;100315.71;218852;1254;140781;-66
2023/04/06 10:10:42;;;;;;;4.50;2.90;;;;;;;5.41;59.03;100310.65;218008;1255;139907;-66
2023/04/06 10:15:48;;;;;;;4.30;2.90;;;;;;;5.46;59.26;100309.17;218750;1259;138767;-67
2023/04/06 10:20:57;;;;;;;5.10;3.80;;;;;;;5.57;58.54;100308.89;218280;1254;138907;-66
2023/04/06 10:26:04;;;;;;;4.30;3.30;;;;;;;5.54;58.37;100301.47;219299;1255;138929;-66
2023/04/06 10:31:09;;;;;;;3.40;3.00;;;;;;;5.60;58.38;100295.95;219306;1255;138659;-67
2023/04/06 10:36:15;;;;;;;3.70;3.40;;;;;;;5.81;58.69;100292.32;218564;1255;139002;-66
2023/04/06 10:41:20;;;;;;;6.30;3.80;;;;;;;5.94;58.71;100281.52;219306;1254;139347;-67
2023/04/06 10:46:30;;;;;;;4.10;3.50;;;;;;;5.93;57.94;100284.30;219711;1254;138993;-67
2023/04/06 10:51:38;;;;;;;7.50;3.60;;;;;;;5.99;58.14;100278.91;219435;1257;138971;-67
2023/04/06 10:56:43;;;;;;;5.70;4.20;;;;;;;5.89;57.45;100278.36;219815;1254;138870;-66
2023/04/06 11:01:49;;;;;;;7.90;3.70;;;;;;;5.96;57.50;100262.69;219858;1254;664705;-67
2023/04/06 11:06:54;;;;;;;5.10;3.80;;;;;;;6.06;57.47;100263.09;220815;1254;139672;-67
2023/04/06 11:12:00;;;;;;;5.80;3.30;;;;;;;6.00;57.79;100260.84;220151;1253;139098;-67
2023/04/06 11:17:06;;;;;;;3.50;3.10;;;;;;;6.14;57.90;100253.77;220628;1253;138763;-67
2023/04/06 11:22:11;;;;;;;4.50;3.50;;;;;;;6.15;57.53;100253.52;219770;1254;140030;-67
2023/04/06 11:27:16;;;;;;;6.10;3.00;;;;;;;6.20;57.64;100249.33;219879;1254;139638;-67
2023/04/06 11:32:23;;;;;;;5.40;3.60;;;;;;;6.14;57.41;100243.75;219863;1254;139237;-67
2023/04/06 11:37:28;;;;;;;4.40;3.70;;;;;;;5.97;57.25;100244.82;219116;1254;139286;-67
2023/04/06 11:42:35;;;;;;;6.30;4.20;;;;;;;5.92;57.65;100236.42;219794;1254;138837;-67
2023/04/06 11:47:41;;;;;;;4.60;3.70;;;;;;;5.82;57.50;100235.38;218743;1254;139325;-65
2023/04/06 11:53:00;;;;;;;6.80;3.90;;;;;;;5.60;57.66;100235.41;218893;1254;139619;-67
2023/04/06 11:58:04;;;;;;;4.50;4.10;;;;;;;5.35;58.00;100238.52;218589;1254;138805;-66
2023/04/06 12:03:11;;;;;;;5.70;4.10;;;;;;;5.15;58.05;100235.27;218481;1254;139069;-66
2023/04/06 12:08:17;;;;;;;6.70;4.60;;;;;;;5.07;58.53;100230.02;218385;1257;139936;-66
2023/04/06 12:13:24;;;;;;;5.30;3.90;;;;;;;5.06;58.92;100228.05;218593;1254;138782;-66
2023/04/06 12:18:30;;;;;;;4.40;4.00;;;;;;;5.03;58.99;100223.42;219016;1254;138421;-66
2023/04/06 12:23:34;;;;;;;6.20;4.80;;;;;;;4.92;59.12;100219.02;218690;1253;138729;-66
2023/04/06 12:28:39;;;;;;;4.80;3.70;;;;;;;4.83;59.55;100215.05;219290;1254;139640;-66
2023/04/06 12:33:48;;;;;;;6.60;3.90;;;;;;;4.79;60.09;100211.89;218491;1254;138745;-66
2023/04/06 12:38:55;;;;;;;4.00;3.60;;;;;;;4.70;60.30;100203.74;219464;1254;139415;-66
2023/04/06 12:44:03;;;;;;;6.20;3.40;;;;;;;4.62;61.06;100203.52;218878;1254;139036;-66
2023/04/06 12:49:10;;;;;;;4.50;4.10;;;;;;;4.58;61.41;100200.83;218818;1254;139760;-66
2023/04/06 12:54:15;;;;;;;6.00;5.00;;;;;;;4.48;61.94;100200.06;219911;1254;139688;-67
2023/04/06 12:59:24;;;;;;;9.60;4.40;;;;;;;4.38;62.16;100199.39;218810;1254;138904;-67
2023/04/06 13:04:30;;;;;;;6.30;4.90;;;;;;;4.26;62.83;100198.33;220748;1254;138694;-66
2023/04/06 13:09:36;;;;;;;5.10;4.60;;;;;;;4.14;63.11;100189.74;220138;1254;139632;-67
2023/04/06 13:14:40;;;;;;;5.20;4.70;;;;;;;4.00;63.77;100183.00;218207;1254;139107;-66
2023/04/06 13:19:46;;;;;;;6.80;5.20;;;;;;;3.90;64.14;100174.60;218702;1254;140031;-68
2023/04/06 13:24:51;;;;;;;6.80;5.20;;;;;;;3.81;64.63;100173.15;219378;1254;140624;-66
2023/04/06 13:29:58;;;;;;;12.20;5.10;;;;;;;3.79;65.13;100169.27;219566;1254;140863;-66
2023/04/06 13:35:03;;;;;;;5.30;4.60;;;;;;;3.77;65.30;100165.66;218789;1254;139888;-64
2023/04/06 13:40:09;;;;;;;4.70;4.20;;;;;;;3.76;65.55;100160.21;218833;1254;139047;-64
2023/04/06 13:45:13;;;;;;;7.70;5.70;;;;;;;3.74;65.54;100160.32;218725;1254;139715;-64
2023/04/06 13:50:18;;;;;;;7.30;5.20;;;;;;;3.71;65.97;100156.98;218500;1254;207971;-66
2023/04/06 13:55:24;;;;;;;8.30;5.80;;;;;;;3.73;65.98;100151.29;218775;1254;139679;-66
2023/04/06 14:00:37;;;;;;;7.70;5.50;;;;;;;3.74;66.22;100145.98;218053;1254;140391;-65
2023/04/06 14:05:44;;;;;;;8.10;5.90;;;;;;;3.76;66.36;100141.02;218287;1254;139608;-65
2023/04/06 14:10:50;;;;;;;8.00;6.30;;;;;;;3.72;66.51;100138.05;218311;1254;162507;-64
2023/04/06 14:15:55;;;;;;;6.70;5.30;;;;;;;3.63;66.35;100144.12;218692;1254;139450;-64
2023/04/06 14:21:00;;;;;;;6.70;5.40;;;;;;;3.48;66.73;100139.15;219127;1253;139930;-65
2023/04/06 14:26:08;;;;;;;5.60;4.60;;;;;;;3.39;67.15;100139.73;219071;1257;140364;-65
2023/04/06 14:31:14;;;;;;;9.70;6.30;;;;;;;3.35;67.64;100141.46;219353;1256;141344;-65
2023/04/06 14:36:20;;;;;;;7.70;5.60;;;;;;;3.33;67.63;100140.08;219652;1257;139919;-65
2023/04/06 14:41:25;;;;;;;6.80;4.50;;;;;;;3.23;68.00;100137.04;217862;1257;142080;-65
2023/04/06 14:46:29;;;;;;;9.50;4.80;;;;;;;3.16;68.44;100141.50;220442;1256;140407;-65
2023/04/06 14:51:35;;;;;;;8.90;6.40;;;;;;;3.07;68.72;100139.08;220449;1256;140340;-64
2023/04/06 14:56:42;;;;;;;6.00;5.40;;;;;;;2.96;69.17;100137.84;220358;1256;140410;-65
2023/04/06 15:01:46;;;;;;;9.20;6.00;;;;;;;2.83;69.38;100134.77;220059;1256;139774;-63
2023/04/06 15:06:51;;;;;;;8.10;4.90;;;;;;;2.66;69.78;100134.85;220226;1256;141659;-64
2023/04/06 15:11:56;;;;;;;9.10;6.60;;;;;;;2.55;70.17;100132.24;218636;1256;139423;-64
2023/04/06 15:17:00;;;;;;;6.50;5.60;;;;;;;2.47;70.84;100128.40;219334;1256;139582;-64
2023/04/06 15:22:05;;;;;;;8.70;6.20;;;;;;;2.46;71.19;100123.45;219421;1256;151283;-66
2023/04/06 15:27:10;;;;;;;8.50;6.00;;;;;;;2.45;71.27;100117.39;219159;1256;140194;-64
2023/04/06 15:32:14;;;;;;;10.70;6.90;;;;;;;2.46;71.68;100115.80;219680;1256;139937;-65
2023/04/06 15:37:19;;;;;;;8.50;6.90;;;;;;;2.44;71.78;100108.52;218045;1259;140687;-65
2023/04/06 15:42:25;;;;;;;7.80;5.70;;;;;;;2.37;71.90;100105.08;218923;1256;140236;-66
2023/04/06 15:47:29;;;;;;;8.70;6.20;;;;;;;2.29;72.63;100101.30;218300;1256;140399;-64
2023/04/06 15:52:35;;;;;;;9.00;7.20;;;;;;;2.22;73.01;100099.75;217981;1256;139915;-63
2023/04/06 15:57:40;;;;;;;9.20;6.70;;;;;;;2.16;73.04;100097.84;219014;1256;140345;-65
2023/04/06 16:02:45;;;;;;;9.30;8.00;;;;;;;2.09;73.10;100096.90;218167;1256;139662;-65
2023/04/06 16:07:51;;;;;;;12.90;7.60;;;;;;;2.03;73.24;100094.96;218951;1256;139585;-64
2023/04/06 16:12:56;;;;;;;11.10;7.40;;;;;;;1.99;73.57;100099.17;218131;1256;139881;-65
2023/04/06 16:18:01;;;;;;;9.00;7.20;;;;;;;1.95;74.11;100097.21;218455;1256;140222;-64
2023/04/06 16:23:05;;;;;;;8.20;7.10;;;;;;;1.91;73.96;100095.05;217867;1256;139636;-65
2023/04/06 16:28:09;;;;;;;10.20;7.30;;;;;;;1.88;74.22;100093.94;218816;1256;139517;-65
2023/04/06 16:33:15;;;;;;;12.00;8.50;;;;;;;1.88;74.64;100089.25;218649;1259;139865;-64
2023/04/06 16:38:22;;;;;;;10.40;8.80;;;;;;;1.87;74.64;100085.96;217995;1256;139763;-65
2023/04/06 16:43:27;;;;;;;10.80;9.40;;;;;;;1.83;74.82;100082.31;219168;1256;141487;-65
2023/04/06 16:48:31;;;;;;;10.90;8.60;;;;;;;1.77;75.17;100080.70;220162;1254;141144;-65
2023/04/06 16:53:36;;;;;;;11.10;9.00;;;;;;;1.73;75.31;100073.91;220485;1256;140103;-64
2023/04/06 16:58:43;;;;;;;14.90;12.00;;;;;;;1.72;75.05;100080.02;219715;1257;140391;-65
2023/04/06 17:03:49;;;;;;;12.10;10.60;;;;;;;1.67;75.30;100079.64;220462;1256;141697;-65
2023/04/06 17:08:53;;;;;;;17.20;10.90;;;;;;;1.66;75.72;100076.77;220440;1256;140731;-64
2023/04/06 17:13:57;;;;;;;14.20;10.30;;;;;;;1.67;75.57;100077.66;219415;1256;140533;-63
2023/04/06 17:19:03;;;;;;;11.50;9.60;;;;;;;1.65;76.08;100076.58;219888;1256;141771;-64
2023/04/06 17:24:07;;;;;;;13.10;9.10;;;;;;;1.63;75.94;100082.00;218375;1256;139814;-63
2023/04/06 17:29:12;;;;;;;13.00;8.90;;;;;;;1.59;76.14;100091.60;219637;1256;139848;-65
2023/04/06 17:34:16;;;;;;;13.70;9.40;;;;;;;1.54;76.26;100092.34;217794;1257;141587;-64
2023/04/06 17:39:20;;;;;;;11.10;9.40;;;;;;;1.50;76.54;100092.63;219574;1256;140003;-63
2023/04/06 17:44:23;;;;;;;13.50;10.20;;;;;;;1.46;76.59;100092.38;219093;1259;150801;-65
2023/04/06 17:49:28;;;;;;;14.00;10.20;;;;;;;1.43;76.94;100093.55;218857;1256;140335;-65
2023/04/06 17:54:34;;;;;;;9.90;8.90;;;;;;;1.41;76.85;100098.52;217806;1260;139790;-65
2023/04/06 17:59:38;;;;;;;14.60;10.30;;;;;;;1.36;77.08;100101.30;217622;1259;139860;-62
2023/04/06 18:04:54;;;;;;;13.00;11.70;;;;;;;1.33;77.16;100110.86;218605;1256;140621;-62
2023/04/06 18:10:00;;;;;;;14.90;9.90;;;;;;;1.31;77.16;100112.87;217768;1257;140747;-64
2023/04/06 18:15:06;;;;;;;17.80;10.90;;;;;;;1.28;77.60;100115.46;217729;1257;140632;-65
2023/04/06 18:20:11;;;;;;;16.10;11.60;;;;;;;1.24;77.68;100110.64;218790;1260;141394;-65
2023/04/06 18:25:18;;;;;;;19.40;12.70;;;;;;;1.23;77.77;100107.55;220170;1256;139810;-65
2023/04/06 18:30:24;;;;;;;13.50;10.50;;;;;;;1.22;78.16;100109.10;219612;1256;140431;-64
2023/04/06 18:35:29;;;;;;;15.60;11.50;;;;;;;1.22;78.20;100107.37;218847;1257;140027;-65
2023/04/06 18:40:38;;;;;;;14.60;11.10;;;;;;;1.21;78.00;100108.54;220448;1256;141030;-65
2023/04/06 18:45:44;;;;;;;14.40;10.80;;;;;;;1.24;78.51;100110.66;220499;1256;140765;-65
2023/04/06 18:50:54;;;;;;;15.30;11.70;;;;;;;1.27;78.56;100112.56;220348;1256;140701;-65
2023/04/06 18:56:00;;;;;;;20.60;10.60;;;;;;;1.29;78.22;100111.61;219131;1257;139690;-66
2023/04/06 19:01:05;;;;;;;14.10;11.30;;;;;;;1.32;78.74;100110.77;219774;1256;141063;-66
2023/04/06 19:06:10;;;;;;;19.40;13.70;;;;;;;1.37;78.75;100104.02;218355;1256;140123;-65
2023/04/06 19:11:15;;;;;;;20.80;17.50;;;;;;;1.36;78.50;100094.77;218634;1256;139893;-65
2023/04/06 19:16:22;;;;;;;21.90;15.40;;;;;;;1.34;78.76;100086.30;218659;1256;142564;-66
2023/04/06 19:21:27;;;;;;;14.40;10.90;;;;;;;1.33;78.83;100088.83;218009;1256;140866;-65
2023/04/06 19:26:33;;;;;;;18.80;13.20;;;;;;;1.28;79.15;100083.39;218502;1257;140687;-65
2023/04/06 19:31:38;;;;;;;18.50;14.70;;;;;;;1.25;79.21;100076.23;218046;1257;140094;-65
2023/04/06 19:36:45;;;;;;;23.30;14.40;;;;;;;1.25;79.49;100073.08;218221;1257;140143;-64
2023/04/06 19:41:50;;;;;;;14.70;10.30;;;;;;;1.25;79.74;100074.14;217958;1256;140471;-65
2023/04/06 19:46:55;;;;;;;16.10;11.80;;;;;;;1.24;79.56;100079.81;218065;1257;140738;-65
2023/04/06 19:52:01;;;;;;;22.60;12.20;;;;;;;1.24;80.03;100074.52;218339;1256;141611;-66
2023/04/06 19:57:07;;;;;;;23.60;12.40;;;;;;;1.25;79.87;100068.68;218280;1257;140308;-65
2023/04/06 20:02:11;;;;;;;12.50;8.30;;;;;;;1.23;79.85;100064.33;219052;1256;140562;-64
2023/04/06 20:07:16;;;;;;;12.80;9.20;;;;;;;1.21;80.22;100060.34;218301;1256;231424;-64
2023/04/06 20:12:24;;;;;;;12.70;8.20;;;;;;;1.21;80.09;100051.61;217770;1256;139945;-63
2023/04/06 20:17:30;;;;;;;14.00;9.70;;;;;;;1.19;80.25;100046.95;219305;1256;235411;-66
2023/04/06 20:22:36;;;;;;;13.90;8.60;;;;;;;1.17;80.14;100041.38;217514;1259;139534;-65
2023/04/06 20:27:39;;;;;;;11.10;7.90;;;;;;;1.16;80.16;100039.80;220153;1256;139952;-66
2023/04/06 20:32:43;;;;;;;15.80;10.00;;;;;;;1.15;80.39;100043.51;219108;1256;139898;-65
2023/04/06 20:37:48;;;;;;;13.90;9.50;;;;;;;1.18;80.59;100040.71;220295;1256;140577;-65
2023/04/06 20:43:03;;;;;;;10.80;8.20;;;;;;;1.21;80.67;100039.16;220665;1256;140296;-65
2023/04/06 20:48:10;;;;;;;10.90;7.30;;;;;;;1.22;80.78;100035.77;220112;1256;142034;-65
2023/04/06 20:53:16;;;;;;;9.10;7.50;;;;;;;1.25;80.94;100035.95;219685;1256;140387;-65
2023/04/06 20:58:21;;;;;;;10.90;7.80;;;;;;;1.28;80.92;100039.11;219458;1256;140163;-64
2023/04/06 21:03:26;;;;;;;10.50;8.30;;;;;;;1.29;80.50;100048.16;218898;1259;140283;-64
2023/04/06 21:08:31;;;;;;;10.30;9.00;;;;;;;1.27;80.96;100056.86;220077;1256;140040;-64
2023/04/06 21:13:35;;;;;;;10.40;8.50;;;;;;;1.29;81.12;100057.42;218647;1257;140108;-64
2023/04/06 21:18:40;;;;;;;13.10;9.50;;;;;;;1.32;81.19;100053.02;219459;1255;140037;-64
2023/04/06 21:23:45;;;;;;;12.80;9.00;;;;;;;1.36;81.43;100045.30;217829;1257;139692;-65
2023/04/06 21:28:49;;;;;;;10.10;8.60;;;;;;;1.34;81.64;100040.73;218585;1254;139719;-64
2023/04/06 21:33:53;;;;;;;14.20;9.10;;;;;;;1.35;81.61;100032.40;219521;1257;140443;-66
2023/04/06 21:39:00;;;;;;;12.50;8.60;;;;;;;1.37;81.31;100017.89;219035;1256;140556;-66
2023/04/06 21:44:05;;;;;;;13.50;10.50;;;;;;;1.38;81.60;100017.20;217435;1256;139787;-65
2023/04/06 21:49:10;;;;;;;12.30;8.90;;;;;;;1.40;82.02;100007.14;218487;1256;139901;-65
2023/04/06 21:54:15;;;;;;;11.00;7.60;;;;;;;1.40;81.73;100007.40;218272;1257;140654;-65
2023/04/06 21:59:20;;;;;;;8.40;7.60;;;;;;;1.37;81.58;100001.23;218311;1257;140281;-65
2023/04/06 22:04:25;;;;;;;8.20;7.20;;;;;;;1.35;81.68;99994.45;219291;1259;140398;-64
2023/04/06 22:09:30;;;;;;;14.00;7.40;;;;;;;1.34;81.77;99993.85;218636;1257;140332;-64
2023/04/06 22:14:35;;;;;;;11.00;7.90;;;;;;;1.33;81.85;99980.92;219296;1256;140819;-66
2023/04/06 22:19:39;;;;;;;12.60;8.60;;;;;;;1.33;81.75;99972.36;218797;1256;140396;-67
2023/04/06 22:24:44;;;;;;;9.90;7.00;;;;;;;1.31;81.99;99968.09;220525;1257;139862;-67
2023/04/06 22:29:48;;;;;;;13.80;8.00;;;;;;;1.29;82.20;99965.46;220200;1256;141824;-65
2023/04/06 22:34:52;;;;;;;10.00;8.90;;;;;;;1.29;81.93;99960.71;220586;1256;141217;-67
2023/04/06 22:39:57;;;;;;;13.50;8.60;;;;;;;1.32;82.23;99965.70;220287;1257;140710;-68
2023/04/06 22:45:02;;;;;;;9.90;8.30;;;;;;;1.34;82.32;99965.30;220358;1259;140089;-68
2023/04/06 22:50:07;;;;;;;12.30;10.30;;;;;;;1.36;82.40;99961.26;220363;1256;139951;-68
2023/04/06 22:55:13;;;;;;;11.50;8.90;;;;;;;1.39;82.44;99957.77;219663;1256;141459;-66
2023/04/06 23:00:17;;;;;;;10.60;9.00;;;;;;;1.41;82.37;99957.16;219148;1257;472288;-67
2023/04/06 23:05:21;;;;;;;11.80;8.50;;;;;;;1.41;82.52;99942.65;218290;1257;140046;-65